sensor_id;sensor_type;location;lat;lon;timestamp;P1;durP1;ratioP1;P2;durP2;ratioP2
5841;SDS011;2947;52.276;9.946;2022-08-18T00:01:38;10.65;;;4.78;;
5841;SDS011;2947;52.276;9.946;2022-08-18T00:04:06;11.45;;;5.03;;
5841;SDS011;2947;52.276;9.946;2022-08-18T00:06:33;10.57;;;5.60;;
5841;SDS011;2947;52.276;9.946;2022-08-18T00:08:59;8.60;;;5.38;;
5841;SDS011;2947;52.276;9.946;2022-08-18T00:11:29;7.35;;;5.60;;
5841;SDS011;2947;52.276;9.946;2022-08-18T00:13:57;7.10;;;5.97;;
5841;SDS011;2947;52.276;9.946;2022-08-18T00:16:23;9.98;;;6.05;;
5841;SDS011;2947;52.276;9.946;2022-08-18T00:18:49;8.13;;;6.70;;
5841;SDS011;2947;52.276;9.946;2022-08-18T00:21:15;6.38;;;5.45;;
5841;SDS011;2947;52.276;9.946;2022-08-18T00:23:42;12.90;;;6.53;;
5841;SDS011;2947;52.276;9.946;2022-08-18T00:26:08;8.02;;;5.70;;
5841;SDS011;2947;52.276;9.946;2022-08-18T00:28:33;13.65;;;6.50;;
5841;SDS011;2947;52.276;9.946;2022-08-18T00:30:59;10.00;;;6.25;;
5841;SDS011;2947;52.276;9.946;2022-08-18T00:33:25;8.15;;;6.93;;
5841;SDS011;2947;52.276;9.946;2022-08-18T00:35:51;9.88;;;6.68;;
5841;SDS011;2947;52.276;9.946;2022-08-18T00:38:17;10.68;;;7.88;;
5841;SDS011;2947;52.276;9.946;2022-08-18T00:40:44;10.00;;;6.85;;
5841;SDS011;2947;52.276;9.946;2022-08-18T00:43:55;10.95;;;7.45;;
5841;SDS011;2947;52.276;9.946;2022-08-18T00:46:12;9.43;;;7.57;;
5841;SDS011;2947;52.276;9.946;2022-08-18T00:48:42;9.23;;;7.72;;
5841;SDS011;2947;52.276;9.946;2022-08-18T00:51:12;11.48;;;7.40;;
5841;SDS011;2947;52.276;9.946;2022-08-18T00:54:07;10.02;;;7.47;;
5841;SDS011;2947;52.276;9.946;2022-08-18T00:56:51;8.60;;;7.18;;
5841;SDS011;2947;52.276;9.946;2022-08-18T00:59:22;9.55;;;7.20;;
5841;SDS011;2947;52.276;9.946;2022-08-18T01:01:56;8.32;;;7.05;;
5841;SDS011;2947;52.276;9.946;2022-08-18T01:04:33;11.57;;;7.93;;
5841;SDS011;2947;52.276;9.946;2022-08-18T01:07:19;9.27;;;7.05;;
5841;SDS011;2947;52.276;9.946;2022-08-18T01:09:53;10.05;;;6.38;;
5841;SDS011;2947;52.276;9.946;2022-08-18T01:12:22;9.30;;;6.43;;
5841;SDS011;2947;52.276;9.946;2022-08-18T01:14:48;9.65;;;6.30;;
5841;SDS011;2947;52.276;9.946;2022-08-18T01:17:13;13.82;;;7.45;;
5841;SDS011;2947;52.276;9.946;2022-08-18T01:19:58;11.32;;;9.30;;
5841;SDS011;2947;52.276;9.946;2022-08-18T01:25:17;15.23;;;11.23;;
5841;SDS011;2947;52.276;9.946;2022-08-18T01:28:11;16.33;;;11.25;;
5841;SDS011;2947;52.276;9.946;2022-08-18T01:30:45;15.98;;;10.60;;
5841;SDS011;2947;52.276;9.946;2022-08-18T01:33:16;16.35;;;11.15;;
5841;SDS011;2947;52.276;9.946;2022-08-18T01:35:44;17.77;;;11.15;;
5841;SDS011;2947;52.276;9.946;2022-08-18T01:38:14;13.95;;;10.88;;
5841;SDS011;2947;52.276;9.946;2022-08-18T01:40:43;13.48;;;10.82;;
5841;SDS011;2947;52.276;9.946;2022-08-18T01:43:10;17.50;;;11.73;;
5841;SDS011;2947;52.276;9.946;2022-08-18T01:45:37;17.50;;;11.38;;
5841;SDS011;2947;52.276;9.946;2022-08-18T01:48:04;12.85;;;10.25;;
5841;SDS011;2947;52.276;9.946;2022-08-18T01:50:29;12.23;;;10.55;;
5841;SDS011;2947;52.276;9.946;2022-08-18T01:52:58;8.88;;;7.93;;
5841;SDS011;2947;52.276;9.946;2022-08-18T01:55:24;10.77;;;8.07;;
5841;SDS011;2947;52.276;9.946;2022-08-18T01:57:52;9.30;;;8.38;;
5841;SDS011;2947;52.276;9.946;2022-08-18T02:00:19;15.77;;;10.52;;
5841;SDS011;2947;52.276;9.946;2022-08-18T02:02:46;10.70;;;9.07;;
5841;SDS011;2947;52.276;9.946;2022-08-18T02:05:14;14.10;;;10.80;;
5841;SDS011;2947;52.276;9.946;2022-08-18T02:07:46;13.40;;;11.25;;
5841;SDS011;2947;52.276;9.946;2022-08-18T02:10:12;16.08;;;12.68;;
5841;SDS011;2947;52.276;9.946;2022-08-18T02:12:39;14.02;;;11.10;;
5841;SDS011;2947;52.276;9.946;2022-08-18T02:15:05;16.67;;;13.32;;
5841;SDS011;2947;52.276;9.946;2022-08-18T02:17:39;20.25;;;13.30;;
5841;SDS011;2947;52.276;9.946;2022-08-18T02:20:09;15.82;;;11.73;;
5841;SDS011;2947;52.276;9.946;2022-08-18T02:22:38;14.75;;;12.15;;
5841;SDS011;2947;52.276;9.946;2022-08-18T02:25:04;19.10;;;14.30;;
5841;SDS011;2947;52.276;9.946;2022-08-18T02:27:31;22.75;;;17.80;;
5841;SDS011;2947;52.276;9.946;2022-08-18T02:29:58;27.50;;;18.90;;
5841;SDS011;2947;52.276;9.946;2022-08-18T02:32:26;29.55;;;19.65;;
5841;SDS011;2947;52.276;9.946;2022-08-18T02:34:52;28.15;;;20.55;;
5841;SDS011;2947;52.276;9.946;2022-08-18T02:37:18;31.33;;;22.92;;
5841;SDS011;2947;52.276;9.946;2022-08-18T02:39:45;31.52;;;20.92;;
5841;SDS011;2947;52.276;9.946;2022-08-18T02:42:10;32.70;;;23.48;;
5841;SDS011;2947;52.276;9.946;2022-08-18T02:44:38;28.40;;;23.73;;
5841;SDS011;2947;52.276;9.946;2022-08-18T02:47:04;32.53;;;23.95;;
5841;SDS011;2947;52.276;9.946;2022-08-18T02:49:30;31.83;;;22.98;;
5841;SDS011;2947;52.276;9.946;2022-08-18T02:51:56;27.73;;;21.45;;
5841;SDS011;2947;52.276;9.946;2022-08-18T02:54:22;32.13;;;23.35;;
5841;SDS011;2947;52.276;9.946;2022-08-18T02:56:50;33.97;;;25.65;;
5841;SDS011;2947;52.276;9.946;2022-08-18T02:59:20;37.60;;;28.67;;
5841;SDS011;2947;52.276;9.946;2022-08-18T03:01:49;36.22;;;27.42;;
5841;SDS011;2947;52.276;9.946;2022-08-18T03:04:20;44.67;;;31.10;;
5841;SDS011;2947;52.276;9.946;2022-08-18T03:06:51;39.05;;;28.98;;
5841;SDS011;2947;52.276;9.946;2022-08-18T03:09:18;44.38;;;31.52;;
5841;SDS011;2947;52.276;9.946;2022-08-18T03:11:45;39.90;;;29.90;;
5841;SDS011;2947;52.276;9.946;2022-08-18T03:14:11;49.00;;;31.15;;
5841;SDS011;2947;52.276;9.946;2022-08-18T03:16:39;40.55;;;30.20;;
5841;SDS011;2947;52.276;9.946;2022-08-18T03:19:10;42.10;;;30.92;;
5841;SDS011;2947;52.276;9.946;2022-08-18T03:21:38;42.45;;;29.98;;
5841;SDS011;2947;52.276;9.946;2022-08-18T03:24:04;43.40;;;30.30;;
5841;SDS011;2947;52.276;9.946;2022-08-18T03:26:31;40.13;;;31.42;;
5841;SDS011;2947;52.276;9.946;2022-08-18T03:28:58;39.13;;;29.85;;
5841;SDS011;2947;52.276;9.946;2022-08-18T03:31:25;41.25;;;32.70;;
5841;SDS011;2947;52.276;9.946;2022-08-18T03:33:55;46.83;;;31.52;;
5841;SDS011;2947;52.276;9.946;2022-08-18T03:36:24;44.72;;;32.72;;
5841;SDS011;2947;52.276;9.946;2022-08-18T03:38:54;43.53;;;32.10;;
5841;SDS011;2947;52.276;9.946;2022-08-18T03:41:22;41.33;;;30.20;;
5841;SDS011;2947;52.276;9.946;2022-08-18T03:43:51;46.53;;;33.72;;
5841;SDS011;2947;52.276;9.946;2022-08-18T03:46:17;43.45;;;32.78;;
5841;SDS011;2947;52.276;9.946;2022-08-18T03:48:46;46.88;;;33.20;;
5841;SDS011;2947;52.276;9.946;2022-08-18T03:51:15;44.25;;;31.70;;
5841;SDS011;2947;52.276;9.946;2022-08-18T03:53:54;38.80;;;30.73;;
5841;SDS011;2947;52.276;9.946;2022-08-18T03:56:24;45.08;;;33.05;;
5841;SDS011;2947;52.276;9.946;2022-08-18T03:58:59;42.42;;;31.30;;
5841;SDS011;2947;52.276;9.946;2022-08-18T04:01:29;44.30;;;34.05;;
5841;SDS011;2947;52.276;9.946;2022-08-18T04:03:59;53.38;;;33.97;;
5841;SDS011;2947;52.276;9.946;2022-08-18T04:06:30;45.03;;;33.63;;
5841;SDS011;2947;52.276;9.946;2022-08-18T04:09:00;46.28;;;33.60;;
5841;SDS011;2947;52.276;9.946;2022-08-18T04:11:32;47.58;;;34.72;;
5841;SDS011;2947;52.276;9.946;2022-08-18T04:14:00;48.50;;;33.28;;
5841;SDS011;2947;52.276;9.946;2022-08-18T04:16:27;47.83;;;34.05;;
5841;SDS011;2947;52.276;9.946;2022-08-18T04:18:55;47.22;;;31.27;;
5841;SDS011;2947;52.276;9.946;2022-08-18T04:21:24;43.78;;;31.15;;
5841;SDS011;2947;52.276;9.946;2022-08-18T04:23:49;48.20;;;33.25;;
5841;SDS011;2947;52.276;9.946;2022-08-18T04:26:15;46.90;;;32.20;;
5841;SDS011;2947;52.276;9.946;2022-08-18T04:28:42;48.75;;;32.88;;
5841;SDS011;2947;52.276;9.946;2022-08-18T04:31:09;48.55;;;33.38;;
5841;SDS011;2947;52.276;9.946;2022-08-18T04:33:38;42.97;;;31.13;;
5841;SDS011;2947;52.276;9.946;2022-08-18T04:36:12;45.42;;;33.35;;
5841;SDS011;2947;52.276;9.946;2022-08-18T04:38:39;47.58;;;34.20;;
5841;SDS011;2947;52.276;9.946;2022-08-18T04:41:06;49.28;;;34.80;;
5841;SDS011;2947;52.276;9.946;2022-08-18T04:43:33;47.70;;;35.03;;
5841;SDS011;2947;52.276;9.946;2022-08-18T04:45:59;50.13;;;35.17;;
5841;SDS011;2947;52.276;9.946;2022-08-18T04:48:32;54.83;;;36.15;;
5841;SDS011;2947;52.276;9.946;2022-08-18T04:51:07;57.25;;;36.40;;
5841;SDS011;2947;52.276;9.946;2022-08-18T04:53:36;58.55;;;35.95;;
5841;SDS011;2947;52.276;9.946;2022-08-18T04:56:12;60.17;;;37.50;;
5841;SDS011;2947;52.276;9.946;2022-08-18T04:58:47;48.78;;;34.72;;
5841;SDS011;2947;52.276;9.946;2022-08-18T05:01:17;51.10;;;34.42;;
5841;SDS011;2947;52.276;9.946;2022-08-18T05:03:46;49.35;;;33.55;;
5841;SDS011;2947;52.276;9.946;2022-08-18T05:06:13;51.25;;;35.33;;
5841;SDS011;2947;52.276;9.946;2022-08-18T05:08:39;47.50;;;33.15;;
5841;SDS011;2947;52.276;9.946;2022-08-18T05:11:05;53.72;;;36.03;;
5841;SDS011;2947;52.276;9.946;2022-08-18T05:13:32;45.55;;;31.83;;
5841;SDS011;2947;52.276;9.946;2022-08-18T05:15:58;51.63;;;34.67;;
5841;SDS011;2947;52.276;9.946;2022-08-18T05:18:28;46.45;;;32.40;;
5841;SDS011;2947;52.276;9.946;2022-08-18T05:20:55;39.03;;;29.65;;
5841;SDS011;2947;52.276;9.946;2022-08-18T05:23:24;47.85;;;30.95;;
5841;SDS011;2947;52.276;9.946;2022-08-18T05:25:55;44.90;;;31.95;;
5841;SDS011;2947;52.276;9.946;2022-08-18T05:28:23;45.88;;;32.45;;
5841;SDS011;2947;52.276;9.946;2022-08-18T05:30:49;40.83;;;29.95;;
5841;SDS011;2947;52.276;9.946;2022-08-18T05:33:16;42.20;;;30.15;;
5841;SDS011;2947;52.276;9.946;2022-08-18T05:35:42;40.90;;;29.65;;
5841;SDS011;2947;52.276;9.946;2022-08-18T05:41:01;42.65;;;30.23;;
5841;SDS011;2947;52.276;9.946;2022-08-18T05:43:43;43.50;;;30.58;;
5841;SDS011;2947;52.276;9.946;2022-08-18T05:46:11;46.90;;;31.13;;
5841;SDS011;2947;52.276;9.946;2022-08-18T05:48:37;43.97;;;30.15;;
5841;SDS011;2947;52.276;9.946;2022-08-18T05:51:15;39.05;;;28.90;;
5841;SDS011;2947;52.276;9.946;2022-08-18T05:53:50;43.60;;;30.65;;
5841;SDS011;2947;52.276;9.946;2022-08-18T05:56:35;43.13;;;29.02;;
5841;SDS011;2947;52.276;9.946;2022-08-18T05:59:23;43.83;;;29.20;;
5841;SDS011;2947;52.276;9.946;2022-08-18T06:02:43;37.38;;;27.20;;
5841;SDS011;2947;52.276;9.946;2022-08-18T06:05:04;38.17;;;26.98;;
5841;SDS011;2947;52.276;9.946;2022-08-18T06:07:41;37.42;;;28.70;;
5841;SDS011;2947;52.276;9.946;2022-08-18T06:10:25;38.50;;;26.98;;
5841;SDS011;2947;52.276;9.946;2022-08-18T06:12:51;36.85;;;28.10;;
5841;SDS011;2947;52.276;9.946;2022-08-18T06:21:34;36.83;;;26.15;;
5841;SDS011;2947;52.276;9.946;2022-08-18T06:27:10;37.58;;;26.58;;
5841;SDS011;2947;52.276;9.946;2022-08-18T06:29:45;33.83;;;25.55;;
5841;SDS011;2947;52.276;9.946;2022-08-18T06:38:50;37.53;;;28.92;;
5841;SDS011;2947;52.276;9.946;2022-08-18T06:41:45;38.13;;;28.58;;
5841;SDS011;2947;52.276;9.946;2022-08-18T06:44:25;46.10;;;29.77;;
5841;SDS011;2947;52.276;9.946;2022-08-18T06:50:01;43.38;;;31.25;;
5841;SDS011;2947;52.276;9.946;2022-08-18T06:52:57;49.58;;;33.13;;
5841;SDS011;2947;52.276;9.946;2022-08-18T06:55:35;46.70;;;30.98;;
5841;SDS011;2947;52.276;9.946;2022-08-18T07:01:04;45.58;;;32.13;;
5841;SDS011;2947;52.276;9.946;2022-08-18T07:03:41;43.92;;;33.78;;
5841;SDS011;2947;52.276;9.946;2022-08-18T07:08:45;47.25;;;34.78;;
5841;SDS011;2947;52.276;9.946;2022-08-18T07:13:56;48.45;;;34.10;;
5841;SDS011;2947;52.276;9.946;2022-08-18T07:16:45;45.40;;;34.42;;
5841;SDS011;2947;52.276;9.946;2022-08-18T07:19:12;47.35;;;32.15;;
5841;SDS011;2947;52.276;9.946;2022-08-18T07:21:44;48.72;;;34.78;;
5841;SDS011;2947;52.276;9.946;2022-08-18T07:24:27;46.35;;;32.53;;
5841;SDS011;2947;52.276;9.946;2022-08-18T07:29:37;47.45;;;32.78;;
5841;SDS011;2947;52.276;9.946;2022-08-18T07:32:12;49.50;;;36.30;;
5841;SDS011;2947;52.276;9.946;2022-08-18T07:34:47;47.03;;;32.78;;
5841;SDS011;2947;52.276;9.946;2022-08-18T07:37:23;44.72;;;34.78;;
5841;SDS011;2947;52.276;9.946;2022-08-18T07:40:02;46.22;;;33.83;;
5841;SDS011;2947;52.276;9.946;2022-08-18T07:45:18;47.60;;;33.10;;
5841;SDS011;2947;52.276;9.946;2022-08-18T07:47:59;45.58;;;33.45;;
5841;SDS011;2947;52.276;9.946;2022-08-18T07:50:47;45.53;;;33.58;;
5841;SDS011;2947;52.276;9.946;2022-08-18T08:01:42;39.72;;;31.45;;
5841;SDS011;2947;52.276;9.946;2022-08-18T08:07:08;44.13;;;32.17;;
5841;SDS011;2947;52.276;9.946;2022-08-18T08:09:45;45.10;;;33.75;;
5841;SDS011;2947;52.276;9.946;2022-08-18T08:21:00;46.00;;;31.98;;
5841;SDS011;2947;52.276;9.946;2022-08-18T08:23:40;46.97;;;33.60;;
5841;SDS011;2947;52.276;9.946;2022-08-18T08:26:22;42.67;;;31.90;;
5841;SDS011;2947;52.276;9.946;2022-08-18T08:32:05;47.97;;;31.75;;
5841;SDS011;2947;52.276;9.946;2022-08-18T08:34:54;52.92;;;36.58;;
5841;SDS011;2947;52.276;9.946;2022-08-18T08:37:41;48.10;;;33.42;;
5841;SDS011;2947;52.276;9.946;2022-08-18T08:40:17;45.83;;;32.50;;
5841;SDS011;2947;52.276;9.946;2022-08-18T08:42:51;47.70;;;31.90;;
5841;SDS011;2947;52.276;9.946;2022-08-18T08:46:14;50.80;;;33.03;;
5841;SDS011;2947;52.276;9.946;2022-08-18T08:48:46;43.85;;;31.38;;
5841;SDS011;2947;52.276;9.946;2022-08-18T08:54:10;43.08;;;30.65;;
5841;SDS011;2947;52.276;9.946;2022-08-18T08:56:50;45.47;;;30.90;;
5841;SDS011;2947;52.276;9.946;2022-08-18T08:59:20;42.53;;;30.05;;
5841;SDS011;2947;52.276;9.946;2022-08-18T09:04:42;44.65;;;30.27;;
5841;SDS011;2947;52.276;9.946;2022-08-18T09:07:45;37.30;;;28.00;;
5841;SDS011;2947;52.276;9.946;2022-08-18T09:22:15;34.55;;;26.10;;
5841;SDS011;2947;52.276;9.946;2022-08-18T09:28:06;30.10;;;22.17;;
5841;SDS011;2947;52.276;9.946;2022-08-18T09:42:15;27.67;;;20.45;;
5841;SDS011;2947;52.276;9.946;2022-08-18T09:45:03;26.08;;;20.80;;
5841;SDS011;2947;52.276;9.946;2022-08-18T09:47:56;26.80;;;19.50;;
5841;SDS011;2947;52.276;9.946;2022-08-18T09:53:15;25.13;;;19.38;;
5841;SDS011;2947;52.276;9.946;2022-08-18T10:01:56;22.33;;;18.05;;
5841;SDS011;2947;52.276;9.946;2022-08-18T10:12:32;26.65;;;20.95;;
5841;SDS011;2947;52.276;9.946;2022-08-18T10:15:52;26.33;;;20.45;;
5841;SDS011;2947;52.276;9.946;2022-08-18T10:21:23;29.02;;;23.35;;
5841;SDS011;2947;52.276;9.946;2022-08-18T10:29:06;20.92;;;17.52;;
5841;SDS011;2947;52.276;9.946;2022-08-18T10:42:37;21.73;;;18.77;;
5841;SDS011;2947;52.276;9.946;2022-08-18T10:45:08;24.08;;;19.00;;
5841;SDS011;2947;52.276;9.946;2022-08-18T10:56:29;27.58;;;21.45;;
5841;SDS011;2947;52.276;9.946;2022-08-18T11:05:10;22.35;;;17.92;;
5841;SDS011;2947;52.276;9.946;2022-08-18T11:07:50;25.55;;;17.55;;
5841;SDS011;2947;52.276;9.946;2022-08-18T11:10:33;25.77;;;20.98;;
5841;SDS011;2947;52.276;9.946;2022-08-18T11:16:23;21.70;;;17.50;;
5841;SDS011;2947;52.276;9.946;2022-08-18T11:19:08;25.10;;;20.55;;
5841;SDS011;2947;52.276;9.946;2022-08-18T11:24:14;24.92;;;19.30;;
5841;SDS011;2947;52.276;9.946;2022-08-18T11:26:59;23.55;;;17.83;;
5841;SDS011;2947;52.276;9.946;2022-08-18T11:29:40;21.38;;;18.17;;
5841;SDS011;2947;52.276;9.946;2022-08-18T11:32:10;24.13;;;18.17;;
5841;SDS011;2947;52.276;9.946;2022-08-18T11:34:45;20.73;;;16.10;;
5841;SDS011;2947;52.276;9.946;2022-08-18T11:42:52;23.40;;;18.48;;
5841;SDS011;2947;52.276;9.946;2022-08-18T11:45:20;22.33;;;18.13;;
5841;SDS011;2947;52.276;9.946;2022-08-18T11:47:59;22.67;;;17.88;;
5841;SDS011;2947;52.276;9.946;2022-08-18T11:53:35;17.80;;;14.60;;
5841;SDS011;2947;52.276;9.946;2022-08-18T11:56:23;21.45;;;15.80;;
5841;SDS011;2947;52.276;9.946;2022-08-18T11:58:57;18.10;;;14.68;;
5841;SDS011;2947;52.276;9.946;2022-08-18T12:07:12;21.55;;;16.58;;
5841;SDS011;2947;52.276;9.946;2022-08-18T12:09:41;19.27;;;15.90;;
5841;SDS011;2947;52.276;9.946;2022-08-18T12:17:35;16.60;;;14.45;;
5841;SDS011;2947;52.276;9.946;2022-08-18T12:20:01;15.77;;;12.95;;
5841;SDS011;2947;52.276;9.946;2022-08-18T12:22:30;15.45;;;13.38;;
5841;SDS011;2947;52.276;9.946;2022-08-18T12:24:56;17.55;;;13.77;;
5841;SDS011;2947;52.276;9.946;2022-08-18T12:27:23;19.27;;;13.65;;
5841;SDS011;2947;52.276;9.946;2022-08-18T12:29:51;17.30;;;13.38;;
5841;SDS011;2947;52.276;9.946;2022-08-18T12:32:20;14.90;;;12.52;;
5841;SDS011;2947;52.276;9.946;2022-08-18T12:34:48;14.00;;;12.13;;
5841;SDS011;2947;52.276;9.946;2022-08-18T12:37:15;12.05;;;10.13;;
5841;SDS011;2947;52.276;9.946;2022-08-18T12:39:44;15.82;;;13.70;;
5841;SDS011;2947;52.276;9.946;2022-08-18T12:42:10;15.88;;;12.52;;
5841;SDS011;2947;52.276;9.946;2022-08-18T12:44:36;15.23;;;11.68;;
5841;SDS011;2947;52.276;9.946;2022-08-18T12:47:05;12.70;;;11.35;;
5841;SDS011;2947;52.276;9.946;2022-08-18T12:49:36;13.10;;;11.55;;
5841;SDS011;2947;52.276;9.946;2022-08-18T12:52:02;13.50;;;11.48;;
5841;SDS011;2947;52.276;9.946;2022-08-18T12:54:29;15.43;;;12.05;;
5841;SDS011;2947;52.276;9.946;2022-08-18T12:56:57;13.18;;;11.82;;
5841;SDS011;2947;52.276;9.946;2022-08-18T12:59:23;12.93;;;11.05;;
5841;SDS011;2947;52.276;9.946;2022-08-18T13:01:50;11.65;;;9.88;;
5841;SDS011;2947;52.276;9.946;2022-08-18T13:04:17;12.85;;;10.35;;
5841;SDS011;2947;52.276;9.946;2022-08-18T13:06:43;12.25;;;10.63;;
5841;SDS011;2947;52.276;9.946;2022-08-18T13:09:12;12.43;;;9.55;;
5841;SDS011;2947;52.276;9.946;2022-08-18T13:11:38;11.38;;;10.18;;
5841;SDS011;2947;52.276;9.946;2022-08-18T13:14:05;10.85;;;9.40;;
5841;SDS011;2947;52.276;9.946;2022-08-18T13:16:33;13.45;;;10.02;;
5841;SDS011;2947;52.276;9.946;2022-08-18T13:19:02;11.90;;;9.68;;
5841;SDS011;2947;52.276;9.946;2022-08-18T13:21:28;13.45;;;9.45;;
5841;SDS011;2947;52.276;9.946;2022-08-18T13:23:54;12.65;;;11.00;;
5841;SDS011;2947;52.276;9.946;2022-08-18T13:26:25;11.00;;;9.88;;
5841;SDS011;2947;52.276;9.946;2022-08-18T13:28:56;11.13;;;8.93;;
5841;SDS011;2947;52.276;9.946;2022-08-18T13:31:24;11.18;;;9.27;;
5841;SDS011;2947;52.276;9.946;2022-08-18T13:33:53;10.30;;;9.30;;
5841;SDS011;2947;52.276;9.946;2022-08-18T13:36:23;10.20;;;8.80;;
5841;SDS011;2947;52.276;9.946;2022-08-18T13:38:51;11.57;;;9.45;;
5841;SDS011;2947;52.276;9.946;2022-08-18T13:41:18;9.40;;;8.40;;
5841;SDS011;2947;52.276;9.946;2022-08-18T13:43:46;9.88;;;8.00;;
5841;SDS011;2947;52.276;9.946;2022-08-18T13:46:13;9.88;;;8.88;;
5841;SDS011;2947;52.276;9.946;2022-08-18T13:48:42;9.75;;;8.75;;
5841;SDS011;2947;52.276;9.946;2022-08-18T13:51:12;10.18;;;8.35;;
5841;SDS011;2947;52.276;9.946;2022-08-18T13:53:46;10.68;;;8.95;;
5841;SDS011;2947;52.276;9.946;2022-08-18T13:56:12;13.77;;;9.45;;
5841;SDS011;2947;52.276;9.946;2022-08-18T13:58:38;9.70;;;8.70;;
5841;SDS011;2947;52.276;9.946;2022-08-18T14:01:05;12.57;;;8.73;;
5841;SDS011;2947;52.276;9.946;2022-08-18T14:03:32;9.27;;;8.30;;
5841;SDS011;2947;52.276;9.946;2022-08-18T14:05:59;8.43;;;7.53;;
5841;SDS011;2947;52.276;9.946;2022-08-18T14:08:27;9.35;;;7.63;;
5841;SDS011;2947;52.276;9.946;2022-08-18T14:10:55;12.52;;;9.48;;
5841;SDS011;2947;52.276;9.946;2022-08-18T14:13:24;8.73;;;7.82;;
5841;SDS011;2947;52.276;9.946;2022-08-18T14:15:51;9.50;;;8.60;;
5841;SDS011;2947;52.276;9.946;2022-08-18T14:18:20;10.45;;;8.90;;
5841;SDS011;2947;52.276;9.946;2022-08-18T14:20:47;10.63;;;8.25;;
5841;SDS011;2947;52.276;9.946;2022-08-18T14:23:31;11.05;;;9.60;;
5841;SDS011;2947;52.276;9.946;2022-08-18T14:26:15;12.10;;;8.25;;
5841;SDS011;2947;52.276;9.946;2022-08-18T14:29:16;10.45;;;8.80;;
5841;SDS011;2947;52.276;9.946;2022-08-18T14:31:43;9.55;;;8.15;;
5841;SDS011;2947;52.276;9.946;2022-08-18T14:34:08;10.07;;;9.05;;
5841;SDS011;2947;52.276;9.946;2022-08-18T14:36:34;11.82;;;9.75;;
5841;SDS011;2947;52.276;9.946;2022-08-18T14:39:00;10.93;;;9.52;;
5841;SDS011;2947;52.276;9.946;2022-08-18T14:41:27;14.85;;;10.30;;
5841;SDS011;2947;52.276;9.946;2022-08-18T14:44:01;12.73;;;11.13;;
5841;SDS011;2947;52.276;9.946;2022-08-18T14:46:27;10.90;;;8.80;;
5841;SDS011;2947;52.276;9.946;2022-08-18T14:48:53;12.82;;;11.13;;
5841;SDS011;2947;52.276;9.946;2022-08-18T14:51:19;17.05;;;10.75;;
5841;SDS011;2947;52.276;9.946;2022-08-18T14:53:44;14.50;;;9.93;;
5841;SDS011;2947;52.276;9.946;2022-08-18T14:56:10;10.90;;;9.75;;
5841;SDS011;2947;52.276;9.946;2022-08-18T14:58:36;12.65;;;10.32;;
5841;SDS011;2947;52.276;9.946;2022-08-18T15:01:06;11.38;;;10.07;;
5841;SDS011;2947;52.276;9.946;2022-08-18T15:03:35;10.68;;;9.57;;
5841;SDS011;2947;52.276;9.946;2022-08-18T15:06:02;11.32;;;9.50;;
5841;SDS011;2947;52.276;9.946;2022-08-18T15:08:30;10.45;;;9.27;;
5841;SDS011;2947;52.276;9.946;2022-08-18T15:10:58;12.15;;;10.23;;
5841;SDS011;2947;52.276;9.946;2022-08-18T15:13:24;10.25;;;8.85;;
5841;SDS011;2947;52.276;9.946;2022-08-18T15:15:50;10.77;;;9.35;;
5841;SDS011;2947;52.276;9.946;2022-08-18T15:18:16;12.23;;;9.27;;
5841;SDS011;2947;52.276;9.946;2022-08-18T15:20:43;15.15;;;9.65;;
5841;SDS011;2947;52.276;9.946;2022-08-18T15:23:28;10.68;;;9.23;;
5841;SDS011;2947;52.276;9.946;2022-08-18T15:26:12;10.55;;;9.13;;
5841;SDS011;2947;52.276;9.946;2022-08-18T15:28:45;12.32;;;9.15;;
5841;SDS011;2947;52.276;9.946;2022-08-18T15:31:11;13.02;;;10.35;;
5841;SDS011;2947;52.276;9.946;2022-08-18T15:33:37;11.18;;;8.77;;
5841;SDS011;2947;52.276;9.946;2022-08-18T15:36:02;10.50;;;9.15;;
5841;SDS011;2947;52.276;9.946;2022-08-18T15:38:28;14.05;;;8.88;;
5841;SDS011;2947;52.276;9.946;2022-08-18T15:40:56;11.70;;;9.73;;
5841;SDS011;2947;52.276;9.946;2022-08-18T15:43:24;12.27;;;8.93;;
5841;SDS011;2947;52.276;9.946;2022-08-18T15:45:52;9.15;;;7.97;;
5841;SDS011;2947;52.276;9.946;2022-08-18T15:48:19;11.88;;;9.25;;
5841;SDS011;2947;52.276;9.946;2022-08-18T15:50:46;15.25;;;9.40;;
5841;SDS011;2947;52.276;9.946;2022-08-18T15:53:15;11.30;;;8.82;;
5841;SDS011;2947;52.276;9.946;2022-08-18T15:55:44;11.73;;;8.25;;
5841;SDS011;2947;52.276;9.946;2022-08-18T15:58:11;9.82;;;8.77;;
5841;SDS011;2947;52.276;9.946;2022-08-18T16:00:38;12.70;;;9.35;;
5841;SDS011;2947;52.276;9.946;2022-08-18T16:03:08;10.32;;;8.85;;
5841;SDS011;2947;52.276;9.946;2022-08-18T16:05:39;12.70;;;8.25;;
5841;SDS011;2947;52.276;9.946;2022-08-18T16:08:15;10.90;;;8.45;;
5841;SDS011;2947;52.276;9.946;2022-08-18T16:10:43;11.52;;;9.30;;
5841;SDS011;2947;52.276;9.946;2022-08-18T16:13:09;9.93;;;8.48;;
5841;SDS011;2947;52.276;9.946;2022-08-18T16:15:39;12.50;;;8.82;;
5841;SDS011;2947;52.276;9.946;2022-08-18T16:18:07;11.68;;;9.30;;
5841;SDS011;2947;52.276;9.946;2022-08-18T16:20:35;10.93;;;8.18;;
5841;SDS011;2947;52.276;9.946;2022-08-18T16:23:01;11.27;;;8.60;;
5841;SDS011;2947;52.276;9.946;2022-08-18T16:25:27;11.18;;;8.98;;
5841;SDS011;2947;52.276;9.946;2022-08-18T16:27:53;12.52;;;8.65;;
5841;SDS011;2947;52.276;9.946;2022-08-18T16:30:21;9.25;;;7.38;;
5841;SDS011;2947;52.276;9.946;2022-08-18T16:32:49;9.90;;;8.77;;
5841;SDS011;2947;52.276;9.946;2022-08-18T16:35:17;10.70;;;8.10;;
5841;SDS011;2947;52.276;9.946;2022-08-18T16:37:44;11.10;;;8.68;;
5841;SDS011;2947;52.276;9.946;2022-08-18T16:40:15;9.50;;;8.60;;
5841;SDS011;2947;52.276;9.946;2022-08-18T16:42:43;10.60;;;8.27;;
5841;SDS011;2947;52.276;9.946;2022-08-18T16:45:10;9.48;;;8.48;;
5841;SDS011;2947;52.276;9.946;2022-08-18T16:47:36;10.65;;;9.32;;
5841;SDS011;2947;52.276;9.946;2022-08-18T16:50:04;11.75;;;9.45;;
5841;SDS011;2947;52.276;9.946;2022-08-18T16:52:33;13.10;;;8.55;;
5841;SDS011;2947;52.276;9.946;2022-08-18T16:54:59;11.65;;;9.43;;
5841;SDS011;2947;52.276;9.946;2022-08-18T16:57:25;12.65;;;9.07;;
5841;SDS011;2947;52.276;9.946;2022-08-18T17:00:09;11.90;;;8.93;;
5841;SDS011;2947;52.276;9.946;2022-08-18T17:02:54;13.50;;;7.90;;
5841;SDS011;2947;52.276;9.946;2022-08-18T17:05:38;10.75;;;8.93;;
5841;SDS011;2947;52.276;9.946;2022-08-18T17:08:04;12.00;;;9.77;;
5841;SDS011;2947;52.276;9.946;2022-08-18T17:10:30;10.95;;;8.32;;
5841;SDS011;2947;52.276;9.946;2022-08-18T17:13:02;16.80;;;12.35;;
5841;SDS011;2947;52.276;9.946;2022-08-18T17:15:29;12.07;;;10.35;;
5841;SDS011;2947;52.276;9.946;2022-08-18T17:17:56;13.18;;;9.75;;
5841;SDS011;2947;52.276;9.946;2022-08-18T17:20:21;19.00;;;9.00;;
5841;SDS011;2947;52.276;9.946;2022-08-18T17:22:47;14.88;;;9.70;;
5841;SDS011;2947;52.276;9.946;2022-08-18T17:25:15;10.57;;;9.52;;
5841;SDS011;2947;52.276;9.946;2022-08-18T17:27:47;13.52;;;10.95;;
5841;SDS011;2947;52.276;9.946;2022-08-18T17:30:14;13.10;;;10.05;;
5841;SDS011;2947;52.276;9.946;2022-08-18T17:35:22;13.75;;;9.63;;
5841;SDS011;2947;52.276;9.946;2022-08-18T17:37:51;11.50;;;8.50;;
5841;SDS011;2947;52.276;9.946;2022-08-18T17:40:34;14.70;;;9.82;;
5841;SDS011;2947;52.276;9.946;2022-08-18T17:43:12;10.05;;;8.43;;
5841;SDS011;2947;52.276;9.946;2022-08-18T17:45:43;11.88;;;8.50;;
5841;SDS011;2947;52.276;9.946;2022-08-18T17:48:23;10.02;;;8.45;;
5841;SDS011;2947;52.276;9.946;2022-08-18T17:51:00;11.68;;;8.48;;
5841;SDS011;2947;52.276;9.946;2022-08-18T17:53:59;12.30;;;10.23;;
5841;SDS011;2947;52.276;9.946;2022-08-18T17:56:54;12.90;;;10.43;;
5841;SDS011;2947;52.276;9.946;2022-08-18T17:59:27;12.68;;;10.07;;
5841;SDS011;2947;52.276;9.946;2022-08-18T18:04:45;14.57;;;11.30;;
5841;SDS011;2947;52.276;9.946;2022-08-18T18:07:22;11.98;;;10.75;;
5841;SDS011;2947;52.276;9.946;2022-08-18T18:09:56;13.90;;;10.98;;
5841;SDS011;2947;52.276;9.946;2022-08-18T18:12:31;16.45;;;10.93;;
5841;SDS011;2947;52.276;9.946;2022-08-18T18:15:00;13.20;;;10.60;;